Time;durP1;ratioP1;P1;durP2;ratioP2;P2;SDS_P1;SDS_P2;PMS_P1;PMS_P2;Temp;Humidity;BMP_temperature;BMP_pressure;BME280_temperature;BME280_humidity;BME280_pressure;Samples;Min_cycle;Max_cycle;Signal;HPM_P1;HPM_P2
2020/12/09 00:00:51;;;;;;;25.97;13.27;;;;;;;;;;4984517;28;20488;-93
2020/12/09 00:03:17;;;;;;;24.83;11.87;;;;;;;;;;5008273;28;20455;-95
2020/12/09 00:05:44;;;;;;;20.53;10.93;;;;;;;;;;5013022;28;20464;-92
2020/12/09 00:08:10;;;;;;;18.40;10.40;;;;;;;;;;5008129;28;20460;-95
2020/12/09 00:10:36;;;;;;;18.80;10.90;;;;;;;;;;5024675;28;20448;-95
2020/12/09 00:13:02;;;;;;;23.43;11.50;;;;;;;;;;5020158;28;20471;-94
2020/12/09 00:15:28;;;;;;;19.65;10.00;;;;;;;;;;5010878;28;20503;-94
2020/12/09 00:17:55;;;;;;;20.45;10.27;;;;;;;;;;4985613;28;20215;-95
2020/12/09 00:20:21;;;;;;;27.03;14.70;;;;;;;;;;5016257;28;20211;-94
2020/12/09 00:22:47;;;;;;;20.50;10.60;;;;;;;;;;5023796;28;20856;-96
2020/12/09 00:25:13;;;;;;;21.17;9.83;;;;;;;;;;5010687;28;20477;-96
2020/12/09 00:27:39;;;;;;;21.93;11.83;;;;;;;;;;5004430;28;20463;-96
2020/12/09 00:30:06;;;;;;;18.27;9.90;;;;;;;;;;5001777;28;20460;-95
2020/12/09 00:32:34;;;;;;;22.03;10.37;;;;;;;;;;5022993;28;20487;-94
2020/12/09 00:35:01;;;;;;;18.87;9.60;;;;;;;;;;5007121;28;20579;-95
2020/12/09 00:37:27;;;;;;;15.40;9.10;;;;;;;;;;4999991;28;20472;-95
2020/12/09 00:39:53;;;;;;;13.40;7.37;;;;;;;;;;5003447;28;20464;-94
2020/12/09 00:42:19;;;;;;;14.13;8.40;;;;;;;;;;5011289;28;20456;-94
2020/12/09 00:44:45;;;;;;;15.70;8.47;;;;;;;;;;5011049;28;20485;-92
2020/12/09 00:47:11;;;;;;;15.60;9.50;;;;;;;;;;5009359;28;20805;-93
2020/12/09 00:52:18;;;;;;;22.03;10.67;;;;;;;;;;5013941;28;20448;-95
2020/12/09 00:54:44;;;;;;;14.02;7.68;;;;;;;;;;5007843;28;20863;-94
2020/12/09 00:57:10;;;;;;;25.13;15.03;;;;;;;;;;5002700;28;20246;-94
2020/12/09 00:59:36;;;;;;;121.37;72.97;;;;;;;;;;5021624;28;20456;-96
2020/12/09 01:02:02;;;;;;;59.73;35.90;;;;;;;;;;5036368;28;20439;-96
2020/12/09 01:04:28;;;;;;;50.57;31.70;;;;;;;;;;5005906;28;20476;-95
2020/12/09 01:06:54;;;;;;;60.67;40.38;;;;;;;;;;5003130;28;20452;-94
2020/12/09 01:09:21;;;;;;;45.53;28.00;;;;;;;;;;5006872;28;20201;-95
2020/12/09 01:11:47;;;;;;;26.37;14.33;;;;;;;;;;5022975;28;20452;-95
2020/12/09 01:14:13;;;;;;;21.93;11.57;;;;;;;;;;5004501;28;20503;-94
2020/12/09 01:16:39;;;;;;;22.73;10.67;;;;;;;;;;5002693;28;20457;-93
2020/12/09 01:19:05;;;;;;;22.30;11.57;;;;;;;;;;5002060;28;21038;-95
2020/12/09 01:21:31;;;;;;;21.00;11.27;;;;;;;;;;5011498;28;20450;-95
2020/12/09 01:23:57;;;;;;;24.35;12.48;;;;;;;;;;5005909;28;20468;-95
2020/12/09 01:26:24;;;;;;;30.50;12.43;;;;;;;;;;5008322;28;20216;-96
2020/12/09 01:28:50;;;;;;;34.17;12.23;;;;;;;;;;5022303;28;20475;-95
2020/12/09 01:31:19;;;;;;;26.20;12.00;;;;;;;;;;5018328;28;20256;-96
2020/12/09 01:33:45;;;;;;;30.30;15.13;;;;;;;;;;5006306;28;20224;-95
2020/12/09 01:36:11;;;;;;;39.23;13.03;;;;;;;;;;5003582;28;20453;-96
2020/12/09 01:38:37;;;;;;;39.90;14.50;;;;;;;;;;5018487;28;20480;-95
2020/12/09 01:41:03;;;;;;;25.97;13.20;;;;;;;;;;5021939;28;20448;-95
2020/12/09 01:43:29;;;;;;;25.30;12.00;;;;;;;;;;5002363;28;20486;-95
2020/12/09 01:45:56;;;;;;;24.50;11.23;;;;;;;;;;4984953;28;20455;-96
2020/12/09 01:48:22;;;;;;;24.93;12.00;;;;;;;;;;5010048;28;20455;-95
2020/12/09 01:50:48;;;;;;;22.77;11.97;;;;;;;;;;5021273;28;20458;-95
2020/12/09 01:53:14;;;;;;;22.87;10.47;;;;;;;;;;5001858;28;20487;-95
2020/12/09 01:55:40;;;;;;;20.33;9.93;;;;;;;;;;5003495;28;20492;-96
2020/12/09 01:58:06;;;;;;;24.92;11.63;;;;;;;;;;5003573;28;20752;-96
2020/12/09 02:00:35;;;;;;;22.07;10.60;;;;;;;;;;5020862;28;20268;-96
2020/12/09 02:03:01;;;;;;;23.07;11.43;;;;;;;;;;5004350;28;20465;-95
2020/12/09 02:05:27;;;;;;;29.63;13.23;;;;;;;;;;5015948;28;20485;-96
2020/12/09 02:07:53;;;;;;;28.93;12.20;;;;;;;;;;5022447;28;20458;-96
2020/12/09 02:10:21;;;;;;;30.53;12.10;;;;;;;;;;5017179;28;20451;-96
2020/12/09 02:12:47;;;;;;;50.40;14.00;;;;;;;;;;5004495;28;20996;-96
2020/12/09 02:15:13;;;;;;;57.17;14.43;;;;;;;;;;5004498;28;21003;-96
2020/12/09 02:17:40;;;;;;;32.47;13.03;;;;;;;;;;4984724;28;20460;-96
2020/12/09 02:20:07;;;;;;;81.63;14.70;;;;;;;;;;4983156;28;20450;-96
2020/12/09 02:22:34;;;;;;;111.47;18.20;;;;;;;;;;4999962;28;20473;-96
2020/12/09 02:25:00;;;;;;;80.10;16.40;;;;;;;;;;5003721;28;20488;-96
2020/12/09 02:27:26;;;;;;;44.67;14.67;;;;;;;;;;5013712;28;20452;-96
2020/12/09 02:29:52;;;;;;;68.20;16.45;;;;;;;;;;5022095;28;20444;-96
2020/12/09 02:32:18;;;;;;;66.22;14.95;;;;;;;;;;4999226;28;20212;-96
2020/12/09 02:34:44;;;;;;;88.57;17.60;;;;;;;;;;5001740;28;20232;-94
2020/12/09 02:37:10;;;;;;;68.97;19.70;;;;;;;;;;5008741;28;20479;-95
2020/12/09 02:39:38;;;;;;;65.67;19.73;;;;;;;;;;5024849;28;20463;-95
2020/12/09 02:42:04;;;;;;;73.88;21.38;;;;;;;;;;5004809;28;20468;-96
2020/12/09 02:44:30;;;;;;;80.90;22.00;;;;;;;;;;5025669;28;20208;-94
2020/12/09 02:46:57;;;;;;;79.40;17.00;;;;;;;;;;5037090;28;20460;-95
2020/12/09 02:49:23;;;;;;;92.33;17.00;;;;;;;;;;5024220;28;20919;-96
2020/12/09 02:51:49;;;;;;;62.90;16.30;;;;;;;;;;5003823;28;20481;-95
2020/12/09 02:54:15;;;;;;;67.10;14.75;;;;;;;;;;5006954;28;20516;-95
2020/12/09 02:56:42;;;;;;;88.10;16.05;;;;;;;;;;5025186;28;20206;-95
2020/12/09 02:59:08;;;;;;;65.07;14.00;;;;;;;;;;5021174;28;20216;-96
2020/12/09 03:01:35;;;;;;;60.60;16.10;;;;;;;;;;5004007;28;20470;-95
2020/12/09 03:04:04;;;;;;;111.93;17.37;;;;;;;;;;5009892;28;20441;-96
2020/12/09 03:06:30;;;;;;;167.27;19.42;;;;;;;;;;5029022;28;20452;-96
2020/12/09 03:08:56;;;;;;;190.60;19.02;;;;;;;;;;5009302;28;20853;-96
2020/12/09 03:11:25;;;;;;;110.67;18.70;;;;;;;;;;5015417;28;20513;-96
2020/12/09 03:13:53;;;;;;;181.20;21.50;;;;;;;;;;5017676;28;20486;-96
2020/12/09 03:16:19;;;;;;;172.93;19.30;;;;;;;;;;5024745;28;20551;-96
2020/12/09 03:18:45;;;;;;;236.90;24.30;;;;;;;;;;5025627;28;20438;-96
2020/12/09 03:21:27;;;;;;;119.22;18.85;;;;;;;;;;5017875;28;20532;-96
2020/12/09 03:23:54;;;;;;;180.68;23.05;;;;;;;;;;5018039;28;20239;-96
2020/12/09 03:26:20;;;;;;;83.63;16.97;;;;;;;;;;5024907;28;20222;-96
2020/12/09 03:31:21;;;;;;;180.48;20.15;;;;;;;;;;4990166;28;20508;-96
2020/12/09 03:33:48;;;;;;;269.23;25.63;;;;;;;;;;4993952;28;20272;-96
2020/12/09 03:36:21;;;;;;;258.03;25.63;;;;;;;;;;4994358;28;20276;-96
2020/12/09 03:38:47;;;;;;;96.53;16.02;;;;;;;;;;4990542;28;20466;-95
2020/12/09 03:44:05;;;;;;;131.03;16.87;;;;;;;;;;4974543;29;20432;-95
2020/12/09 03:46:34;;;;;;;111.63;17.93;;;;;;;;;;4971696;28;21018;-95
2020/12/09 03:49:00;;;;;;;189.20;20.27;;;;;;;;;;4964670;29;20468;-96
2020/12/09 03:51:29;;;;;;;192.17;20.00;;;;;;;;;;4976117;29;20533;-96
2020/12/09 03:56:52;;;;;;;158.40;20.27;;;;;;;;;;4969802;28;20458;-95
2020/12/09 03:59:18;;;;;;;158.70;19.80;;;;;;;;;;4968895;28;20482;-96
2020/12/09 04:01:48;;;;;;;205.63;22.53;;;;;;;;;;4975351;29;20481;-95
2020/12/09 04:04:14;;;;;;;123.15;18.40;;;;;;;;;;4972323;29;20617;-95
2020/12/09 04:06:50;;;;;;;170.43;22.47;;;;;;;;;;4969885;29;20199;-95
2020/12/09 04:09:16;;;;;;;113.77;19.37;;;;;;;;;;4969758;28;20481;-95
2020/12/09 04:11:43;;;;;;;190.25;21.23;;;;;;;;;;4968935;29;20450;-96
2020/12/09 04:46:12;;;;;;;84.47;17.27;;;;;;;;;;5157057;22;20466;-95
2020/12/09 04:55:04;;;;;;;59.80;17.83;;;;;;;;;;5325308;23;20482;-95
2020/12/09 04:57:55;;;;;;;93.82;21.00;;;;;;;;;;4976121;28;20503;-95
2020/12/09 05:00:30;;;;;;;34.50;15.80;;;;;;;;;;4975778;28;20198;-95
2020/12/09 05:03:06;;;;;;;37.53;19.30;;;;;;;;;;4972475;29;20222;-96
2020/12/09 05:05:57;;;;;;;27.53;13.80;;;;;;;;;;5099604;23;20495;-96
2020/12/09 05:08:26;;;;;;;38.30;17.00;;;;;;;;;;4960983;29;20455;-96
2020/12/09 05:10:52;;;;;;;29.95;15.40;;;;;;;;;;4952399;29;20539;-95
2020/12/09 05:13:23;;;;;;;33.70;15.50;;;;;;;;;;4974910;29;20203;-96
2020/12/09 05:37:10;;;;;;;31.80;15.03;;;;;;;;;;5184533;22;25949437;-96
2020/12/09 05:40:01;;;;;;;31.08;16.17;;;;;;;;;;6291528;22;20235;-95
2020/12/09 05:42:29;;;;;;;30.08;16.55;;;;;;;;;;6283728;22;20190;-96
2020/12/09 05:45:08;;;;;;;;;;;;;;;;;;;;;
2020/12/09 05:47:35;;;;;;;35.20;16.53;;;;;;;;;;6281700;22;20415;-96
2020/12/09 05:52:30;;;;;;;39.50;18.93;;;;;;;;;;6292733;22;20436;-95
2020/12/09 06:28:18;;;;;;;64.90;24.80;;;;;;;;;;6280333;23;20439;-96
2020/12/09 06:43:51;;;;;;;87.33;35.00;;;;;;;;;;6169560;23;20444;-96
2020/12/09 06:48:56;;;;;;;113.17;41.37;;;;;;;;;;6289160;22;20475;-96
2020/12/09 07:19:33;;;;;;;65.93;29.02;;;;;;;;;;6271908;22;20206;-96
2020/12/09 07:22:02;;;;;;;63.85;27.42;;;;;;;;;;6261408;22;20194;-96
2020/12/09 07:27:44;;;;;;;53.27;22.90;;;;;;;;;;6265129;23;20417;-95
2020/12/09 07:30:45;;;;;;;57.37;23.57;;;;;;;;;;6267162;22;20406;-96
2020/12/09 07:33:15;;;;;;;58.43;22.53;;;;;;;;;;6271364;22;20419;-96
2020/12/09 07:35:43;;;;;;;55.80;22.87;;;;;;;;;;6269290;22;20426;-96
2020/12/09 07:38:09;;;;;;;57.73;23.53;;;;;;;;;;6264190;22;20393;-96
2020/12/09 07:50:16;;;;;;;52.73;24.50;;;;;;;;;;6238797;23;20439;-96
2020/12/09 07:55:47;;;;;;;60.90;27.90;;;;;;;;;;6271874;22;20449;-96
2020/12/09 07:58:14;;;;;;;68.87;31.10;;;;;;;;;;6273857;22;20421;-96
2020/12/09 08:00:41;;;;;;;58.77;27.67;;;;;;;;;;6274994;23;20418;-96
2020/12/09 08:03:16;;;;;;;70.40;36.20;;;;;;;;;;6275275;22;20433;-96
2020/12/09 08:08:28;;;;;;;83.00;43.73;;;;;;;;;;6286056;22;20447;-96
2020/12/09 08:21:41;;;;;;;96.63;48.87;;;;;;;;;;6266781;23;20440;-96
2020/12/09 08:33:47;;;;;;;108.53;58.03;;;;;;;;;;6257805;22;20470;-96
2020/12/09 08:36:15;;;;;;;142.33;75.97;;;;;;;;;;6336223;22;20426;-96
2020/12/09 08:44:20;;;;;;;106.23;53.20;;;;;;;;;;6240734;22;20423;-96
2020/12/09 08:46:54;;;;;;;121.07;57.57;;;;;;;;;;6270722;22;20455;-96
2020/12/09 08:52:01;;;;;;;136.87;62.73;;;;;;;;;;6299834;22;20447;-96
2020/12/09 08:54:27;;;;;;;125.47;57.40;;;;;;;;;;6335587;22;20404;-96
2020/12/09 08:56:54;;;;;;;124.33;56.87;;;;;;;;;;6308021;22;20404;-96
2020/12/09 08:59:23;;;;;;;125.13;60.10;;;;;;;;;;6334904;22;20415;-96
2020/12/09 09:07:57;;;;;;;111.30;53.77;;;;;;;;;;6322023;22;20422;-96
2020/12/09 09:10:26;;;;;;;106.80;52.40;;;;;;;;;;6329233;22;20419;-96
2020/12/09 09:13:31;;;;;;;104.80;52.10;;;;;;;;;;6334380;22;20403;-96
2020/12/09 09:22:19;;;;;;;86.67;40.33;;;;;;;;;;6153048;23;20440;-96
2020/12/09 09:24:53;;;;;;;80.63;39.80;;;;;;;;;;6181422;22;20453;-96
2020/12/09 09:27:21;;;;;;;91.43;44.10;;;;;;;;;;6299756;22;20405;-96
2020/12/09 09:29:50;;;;;;;87.10;42.77;;;;;;;;;;6300905;22;20400;-96
2020/12/09 09:32:17;;;;;;;104.37;53.70;;;;;;;;;;6288031;22;20459;-95
2020/12/09 09:34:43;;;;;;;113.03;60.40;;;;;;;;;;6295803;22;20914;-96
2020/12/09 09:37:21;;;;;;;104.63;54.00;;;;;;;;;;6288914;22;20476;-96
2020/12/09 09:39:49;;;;;;;93.67;52.50;;;;;;;;;;6296943;22;20420;-95
2020/12/09 09:42:17;;;;;;;110.80;54.10;;;;;;;;;;6274164;22;20427;-96
2020/12/09 09:44:43;;;;;;;79.43;45.47;;;;;;;;;;6298480;22;20425;-95
2020/12/09 09:47:09;;;;;;;74.93;42.93;;;;;;;;;;6293012;22;20407;-95
2020/12/09 09:49:36;;;;;;;84.40;41.70;;;;;;;;;;6293875;22;20480;-96
2020/12/09 09:52:03;;;;;;;71.03;38.70;;;;;;;;;;6278564;22;20547;-95
2020/12/09 09:54:30;;;;;;;80.60;40.83;;;;;;;;;;6318328;22;20408;-96
2020/12/09 09:56:57;;;;;;;88.37;45.17;;;;;;;;;;6317398;22;20419;-96
2020/12/09 09:59:23;;;;;;;76.27;41.30;;;;;;;;;;6316419;22;20414;-96
2020/12/09 10:01:49;;;;;;;75.00;37.97;;;;;;;;;;6317058;22;20491;-96
2020/12/09 10:04:15;;;;;;;69.47;39.77;;;;;;;;;;6317889;22;20435;-96
2020/12/09 10:06:41;;;;;;;74.20;37.07;;;;;;;;;;6318437;22;20491;-96
2020/12/09 10:09:07;;;;;;;63.70;34.17;;;;;;;;;;6317132;22;20418;-95
2020/12/09 10:11:35;;;;;;;65.77;35.10;;;;;;;;;;6317002;22;20408;-96
2020/12/09 10:14:02;;;;;;;74.13;37.07;;;;;;;;;;6318958;22;20404;-95
2020/12/09 10:16:28;;;;;;;82.70;39.00;;;;;;;;;;6318214;22;20414;-95
2020/12/09 10:18:55;;;;;;;82.37;40.27;;;;;;;;;;6318786;22;20415;-96
2020/12/09 10:21:21;;;;;;;77.20;40.03;;;;;;;;;;6317948;22;20427;-95
2020/12/09 10:23:48;;;;;;;84.10;39.30;;;;;;;;;;6319714;22;20452;-96
2020/12/09 10:26:14;;;;;;;88.30;42.00;;;;;;;;;;6317949;22;20479;-95
2020/12/09 10:28:40;;;;;;;87.97;42.23;;;;;;;;;;6319639;22;20408;-96
2020/12/09 10:31:07;;;;;;;87.87;42.57;;;;;;;;;;6320955;22;20408;-95
2020/12/09 10:33:33;;;;;;;80.97;41.20;;;;;;;;;;6322425;22;20408;-96
2020/12/09 10:35:59;;;;;;;86.10;43.17;;;;;;;;;;6320762;22;20487;-96
2020/12/09 10:38:25;;;;;;;89.47;43.80;;;;;;;;;;6320048;22;21026;-96
2020/12/09 10:40:51;;;;;;;82.47;41.33;;;;;;;;;;6319276;22;20407;-96
2020/12/09 10:43:19;;;;;;;93.40;43.03;;;;;;;;;;6329837;22;20459;-96
2020/12/09 10:45:45;;;;;;;86.27;43.03;;;;;;;;;;6322002;22;20408;-96
2020/12/09 10:48:12;;;;;;;83.00;43.00;;;;;;;;;;6320864;22;20420;-96
2020/12/09 10:50:38;;;;;;;89.87;45.43;;;;;;;;;;6319778;22;20483;-96
2020/12/09 10:53:04;;;;;;;95.97;48.37;;;;;;;;;;6322123;22;20404;-96
2020/12/09 10:55:31;;;;;;;88.63;44.60;;;;;;;;;;6315603;22;20426;-96
2020/12/09 10:57:57;;;;;;;95.67;45.07;;;;;;;;;;6317225;22;20408;-96
2020/12/09 11:00:26;;;;;;;93.17;46.20;;;;;;;;;;6325019;22;20475;-96
2020/12/09 11:05:34;;;;;;;112.70;52.47;;;;;;;;;;6317618;22;20452;-95
2020/12/09 11:10:25;;;;;;;110.68;51.05;;;;;;;;;;6286783;22;21442;-96
2020/12/09 11:12:51;;;;;;;104.63;51.53;;;;;;;;;;6314876;22;20197;-95
2020/12/09 11:15:17;;;;;;;103.90;51.43;;;;;;;;;;6314823;22;20408;-96
2020/12/09 11:17:43;;;;;;;126.77;52.70;;;;;;;;;;6319549;22;20415;-96
2020/12/09 11:20:10;;;;;;;98.40;48.53;;;;;;;;;;6319063;22;20415;-96
2020/12/09 11:22:37;;;;;;;91.27;46.03;;;;;;;;;;6320715;22;20432;-96
2020/12/09 11:25:04;;;;;;;93.20;46.97;;;;;;;;;;6322586;22;20483;-96
2020/12/09 11:27:30;;;;;;;88.20;43.87;;;;;;;;;;6328329;22;20422;-96
2020/12/09 11:29:56;;;;;;;87.73;43.33;;;;;;;;;;6324073;22;20781;-96
2020/12/09 11:32:22;;;;;;;69.33;37.37;;;;;;;;;;6316359;22;20418;-95
2020/12/09 11:34:48;;;;;;;74.20;38.83;;;;;;;;;;6318688;22;20414;-96
2020/12/09 11:37:14;;;;;;;69.00;37.87;;;;;;;;;;6318423;22;20408;-95
2020/12/09 11:39:41;;;;;;;79.33;40.57;;;;;;;;;;6316518;22;20442;-96
2020/12/09 11:42:09;;;;;;;65.70;36.43;;;;;;;;;;6316991;22;20400;-96
2020/12/09 11:44:35;;;;;;;74.80;41.50;;;;;;;;;;6317631;22;20862;-96
2020/12/09 11:47:02;;;;;;;72.17;37.90;;;;;;;;;;6318997;22;20452;-96
2020/12/09 11:49:28;;;;;;;65.00;35.67;;;;;;;;;;6317171;22;20404;-95
2020/12/09 11:51:54;;;;;;;65.60;37.07;;;;;;;;;;6318811;22;20472;-96
2020/12/09 11:54:20;;;;;;;67.17;36.70;;;;;;;;;;6318267;22;20434;-96
2020/12/09 11:56:47;;;;;;;73.20;41.23;;;;;;;;;;6323911;22;20423;-95
2020/12/09 11:59:13;;;;;;;82.57;45.83;;;;;;;;;;6322091;22;20419;-96
2020/12/09 12:01:40;;;;;;;89.33;51.60;;;;;;;;;;6321203;22;20420;-96
2020/12/09 12:04:06;;;;;;;82.57;49.17;;;;;;;;;;6320432;22;20466;-96
2020/12/09 12:06:32;;;;;;;82.83;45.93;;;;;;;;;;6322635;22;20404;-96
2020/12/09 12:08:58;;;;;;;91.17;52.63;;;;;;;;;;6318919;22;20400;-96
2020/12/09 12:11:26;;;;;;;98.50;57.03;;;;;;;;;;6316659;22;20439;-96
2020/12/09 12:13:53;;;;;;;88.60;52.07;;;;;;;;;;6316381;22;20418;-96
2020/12/09 12:16:20;;;;;;;87.90;48.20;;;;;;;;;;6314289;22;20424;-96
2020/12/09 12:18:47;;;;;;;87.87;48.93;;;;;;;;;;6318552;22;20439;-95
2020/12/09 12:21:13;;;;;;;93.40;49.90;;;;;;;;;;6318758;22;20407;-96
2020/12/09 12:23:39;;;;;;;94.77;54.43;;;;;;;;;;6315609;22;20535;-95
2020/12/09 12:26:06;;;;;;;90.17;52.40;;;;;;;;;;6317385;22;20411;-94
2020/12/09 12:28:32;;;;;;;107.53;58.30;;;;;;;;;;6315642;22;20411;-94
2020/12/09 12:30:59;;;;;;;101.70;58.90;;;;;;;;;;6315963;22;20465;-94
2020/12/09 12:33:25;;;;;;;103.20;57.40;;;;;;;;;;6314121;22;20408;-94
2020/12/09 12:35:51;;;;;;;93.70;52.20;;;;;;;;;;6317534;22;20411;-93
2020/12/09 12:38:17;;;;;;;82.47;48.20;;;;;;;;;;6316688;22;20410;-95
2020/12/09 12:40:43;;;;;;;138.70;78.90;;;;;;;;;;6317414;22;20404;-94
2020/12/09 12:43:09;;;;;;;108.87;65.07;;;;;;;;;;6316185;22;20828;-94
2020/12/09 12:45:35;;;;;;;105.50;58.60;;;;;;;;;;6315910;22;20412;-94
2020/12/09 12:48:02;;;;;;;92.47;51.63;;;;;;;;;;6316473;22;20415;-94
2020/12/09 12:50:28;;;;;;;79.63;45.97;;;;;;;;;;6315130;22;20438;-92
2020/12/09 12:52:54;;;;;;;75.23;47.53;;;;;;;;;;6316055;22;20396;-93
2020/12/09 12:55:20;;;;;;;68.80;40.10;;;;;;;;;;6317451;22;20423;-93
2020/12/09 12:57:46;;;;;;;69.83;39.10;;;;;;;;;;6318373;22;20423;-94
2020/12/09 13:00:12;;;;;;;95.97;56.47;;;;;;;;;;6288648;22;20449;-94
2020/12/09 13:02:38;;;;;;;117.93;72.43;;;;;;;;;;6317461;22;20435;-95
2020/12/09 13:05:05;;;;;;;92.73;57.07;;;;;;;;;;6316367;22;20404;-96
2020/12/09 13:07:31;;;;;;;98.30;55.10;;;;;;;;;;6315290;22;20398;-96
2020/12/09 13:09:58;;;;;;;92.30;57.77;;;;;;;;;;6324948;22;20399;-95
2020/12/09 13:12:25;;;;;;;111.70;64.03;;;;;;;;;;6319874;22;20428;-96
2020/12/09 13:14:51;;;;;;;114.27;71.87;;;;;;;;;;6316065;22;20419;-95
2020/12/09 13:17:18;;;;;;;123.73;71.30;;;;;;;;;;6314935;22;20404;-95
2020/12/09 13:19:44;;;;;;;117.40;69.07;;;;;;;;;;6317205;22;20400;-93
2020/12/09 13:22:11;;;;;;;119.67;69.23;;;;;;;;;;6314840;22;20414;-94
2020/12/09 13:24:37;;;;;;;116.07;67.77;;;;;;;;;;6316548;22;20450;-93
2020/12/09 13:27:03;;;;;;;103.70;62.03;;;;;;;;;;6314461;22;20416;-94
2020/12/09 13:29:29;;;;;;;113.13;58.13;;;;;;;;;;6314432;22;20408;-92
2020/12/09 13:31:55;;;;;;;95.27;55.23;;;;;;;;;;6314958;22;20422;-95
2020/12/09 13:34:21;;;;;;;84.77;49.30;;;;;;;;;;6311585;22;20404;-93
2020/12/09 13:36:47;;;;;;;82.50;48.00;;;;;;;;;;6315850;22;20404;-92
2020/12/09 13:39:14;;;;;;;81.97;46.57;;;;;;;;;;6315083;22;20406;-94
2020/12/09 13:41:40;;;;;;;81.20;47.00;;;;;;;;;;6317034;22;21173;-95
2020/12/09 13:44:06;;;;;;;85.77;49.30;;;;;;;;;;6316626;22;20455;-94
2020/12/09 13:46:32;;;;;;;81.83;47.07;;;;;;;;;;6319071;22;20419;-94
2020/12/09 13:48:58;;;;;;;80.83;47.90;;;;;;;;;;6318444;22;20476;-95
2020/12/09 13:51:24;;;;;;;77.97;45.60;;;;;;;;;;6315837;22;20400;-95
2020/12/09 13:53:50;;;;;;;80.47;46.77;;;;;;;;;;6319505;22;20949;-93
2020/12/09 13:56:17;;;;;;;83.20;47.30;;;;;;;;;;6317210;22;20465;-95
2020/12/09 13:58:43;;;;;;;77.87;46.37;;;;;;;;;;6318891;22;20407;-94
2020/12/09 14:01:11;;;;;;;73.60;43.13;;;;;;;;;;6319588;22;20412;-95
2020/12/09 14:03:37;;;;;;;74.57;47.83;;;;;;;;;;6319954;22;20452;-95
2020/12/09 14:06:03;;;;;;;73.87;46.07;;;;;;;;;;6318794;22;20411;-95
2020/12/09 14:08:29;;;;;;;81.10;47.10;;;;;;;;;;6318940;22;20414;-94
2020/12/09 14:10:55;;;;;;;80.77;50.57;;;;;;;;;;6318252;22;20431;-94
2020/12/09 14:13:22;;;;;;;74.13;47.87;;;;;;;;;;6318841;22;20411;-95
2020/12/09 14:15:51;;;;;;;87.63;49.00;;;;;;;;;;6319489;22;20412;-95
2020/12/09 14:18:17;;;;;;;73.77;47.60;;;;;;;;;;6315378;22;20720;-95
2020/12/09 14:20:44;;;;;;;86.67;49.97;;;;;;;;;;6315233;22;20469;-95
2020/12/09 14:23:10;;;;;;;83.00;48.27;;;;;;;;;;6315342;22;20462;-94
2020/12/09 14:25:36;;;;;;;88.60;51.57;;;;;;;;;;6317890;22;20408;-93
2020/12/09 14:28:02;;;;;;;80.50;51.27;;;;;;;;;;6315821;22;20845;-95
2020/12/09 14:30:29;;;;;;;87.43;51.87;;;;;;;;;;6315876;22;20410;-94
2020/12/09 14:32:56;;;;;;;98.17;53.40;;;;;;;;;;6316296;22;20902;-95
2020/12/09 14:35:22;;;;;;;100.00;53.60;;;;;;;;;;6317559;22;20408;-94
2020/12/09 14:37:48;;;;;;;91.53;52.77;;;;;;;;;;6319223;22;20412;-93
2020/12/09 14:40:16;;;;;;;97.30;55.90;;;;;;;;;;6315823;22;20412;-93
2020/12/09 14:42:42;;;;;;;96.27;53.30;;;;;;;;;;6316486;22;20408;-93
2020/12/09 14:45:09;;;;;;;90.33;51.23;;;;;;;;;;6317559;22;20416;-94
2020/12/09 14:47:36;;;;;;;87.67;51.50;;;;;;;;;;6318091;22;20440;-94
2020/12/09 14:50:02;;;;;;;83.73;48.67;;;;;;;;;;6316367;22;20944;-94
2020/12/09 14:52:28;;;;;;;80.37;48.90;;;;;;;;;;6318686;22;20430;-94
2020/12/09 14:54:54;;;;;;;77.00;46.90;;;;;;;;;;6325634;22;20411;-95
2020/12/09 14:57:20;;;;;;;73.37;45.80;;;;;;;;;;6312789;22;20408;-95
2020/12/09 14:59:46;;;;;;;80.00;47.97;;;;;;;;;;6314182;22;20981;-95
2020/12/09 15:02:13;;;;;;;85.37;49.07;;;;;;;;;;6313105;22;20483;-96
2020/12/09 15:04:40;;;;;;;85.03;49.27;;;;;;;;;;6321085;22;20446;-95
2020/12/09 15:07:06;;;;;;;90.17;53.30;;;;;;;;;;6322082;22;20479;-95
2020/12/09 15:09:38;;;;;;;112.97;63.77;;;;;;;;;;6300384;22;20408;-96
2020/12/09 15:12:05;;;;;;;115.47;69.97;;;;;;;;;;6325823;22;20443;-96
2020/12/09 15:14:33;;;;;;;119.07;67.50;;;;;;;;;;6325839;22;20400;-96
2020/12/09 15:17:03;;;;;;;141.57;83.43;;;;;;;;;;6324051;22;20436;-96
2020/12/09 15:19:29;;;;;;;153.47;90.67;;;;;;;;;;6327712;22;20408;-96
2020/12/09 15:22:12;;;;;;;162.67;97.47;;;;;;;;;;6324097;22;20411;-96
2020/12/09 15:24:39;;;;;;;153.80;94.30;;;;;;;;;;6328951;22;20443;-96
2020/12/09 15:30:41;;;;;;;141.10;87.00;;;;;;;;;;6244634;23;20401;-94
2020/12/09 15:33:32;;;;;;;143.47;86.67;;;;;;;;;;6229389;23;20442;-96
2020/12/09 15:35:59;;;;;;;147.10;86.70;;;;;;;;;;6231625;23;20426;-96
2020/12/09 15:38:26;;;;;;;140.60;84.87;;;;;;;;;;6223646;23;20430;-94
2020/12/09 15:40:53;;;;;;;132.67;85.97;;;;;;;;;;6223814;23;20411;-96
2020/12/09 15:43:19;;;;;;;122.17;69.27;;;;;;;;;;6223680;23;20450;-95
2020/12/09 15:45:46;;;;;;;117.97;70.83;;;;;;;;;;6224259;23;20410;-96
2020/12/09 15:48:12;;;;;;;113.60;71.80;;;;;;;;;;6224442;23;20418;-96
2020/12/09 15:50:38;;;;;;;95.30;57.50;;;;;;;;;;6224484;23;20754;-95
2020/12/09 15:53:05;;;;;;;86.57;52.00;;;;;;;;;;6229058;23;20425;-96
2020/12/09 16:14:40;;;;;;;134.43;82.47;;;;;;;;;;6299672;22;20447;-96
2020/12/09 16:17:06;;;;;;;131.50;80.80;;;;;;;;;;6302378;22;20400;-96
2020/12/09 16:19:33;;;;;;;125.50;77.77;;;;;;;;;;6301101;22;20411;-96
2020/12/09 16:22:00;;;;;;;139.47;84.37;;;;;;;;;;6294787;22;20464;-95
2020/12/09 16:30:02;;;;;;;160.50;101.67;;;;;;;;;;6252810;22;20437;-95
2020/12/09 16:35:53;;;;;;;158.23;98.30;;;;;;;;;;6276153;22;20356;-94
2020/12/09 16:38:26;;;;;;;157.83;100.27;;;;;;;;;;6275140;22;20412;-96
2020/12/09 16:40:52;;;;;;;154.23;97.20;;;;;;;;;;6247736;22;20435;-96
2020/12/09 16:43:18;;;;;;;139.07;84.43;;;;;;;;;;6240650;23;20456;-96
2020/12/09 17:02:46;;;;;;;136.03;90.20;;;;;;;;;;6298214;22;20479;-96
2020/12/09 17:05:13;;;;;;;154.10;93.27;;;;;;;;;;6300511;22;20381;-96
2020/12/09 17:10:56;;;;;;;143.73;89.33;;;;;;;;;;6317589;22;20431;-96
2020/12/09 17:13:28;;;;;;;150.07;95.40;;;;;;;;;;6290147;22;20425;-96
2020/12/09 17:15:54;;;;;;;168.20;98.97;;;;;;;;;;6306251;22;20415;-96
2020/12/09 17:18:26;;;;;;;150.17;94.93;;;;;;;;;;6302347;22;20415;-96
2020/12/09 17:20:53;;;;;;;163.03;91.67;;;;;;;;;;6302022;22;20492;-96
2020/12/09 17:23:22;;;;;;;124.50;78.97;;;;;;;;;;6275927;22;20515;-96
2020/12/09 17:25:58;;;;;;;140.10;88.77;;;;;;;;;;6300556;22;20443;-96
2020/12/09 17:31:17;;;;;;;158.73;96.63;;;;;;;;;;6297921;22;20392;-96
2020/12/09 17:39:27;;;;;;;101.10;62.00;;;;;;;;;;6287252;22;20479;-96
2020/12/09 17:48:01;;;;;;;60.50;39.60;;;;;;;;;;6277508;22;20435;-96
2020/12/09 17:50:27;;;;;;;97.60;64.13;;;;;;;;;;6305687;22;20403;-95
2020/12/09 17:53:15;;;;;;;104.97;67.23;;;;;;;;;;6237673;23;20403;-96
2020/12/09 17:55:41;;;;;;;119.03;77.10;;;;;;;;;;6270265;22;20474;-96
2020/12/09 17:58:13;;;;;;;146.03;92.87;;;;;;;;;;6287715;22;20523;-96
2020/12/09 18:00:40;;;;;;;191.63;124.40;;;;;;;;;;6290265;22;20405;-96
2020/12/09 18:03:06;;;;;;;183.20;120.07;;;;;;;;;;6288743;22;20520;-96
2020/12/09 18:05:32;;;;;;;188.10;120.83;;;;;;;;;;6287961;22;20407;-96
2020/12/09 18:08:12;;;;;;;196.10;125.47;;;;;;;;;;6292534;22;20391;-96
2020/12/09 18:13:46;;;;;;;177.93;114.20;;;;;;;;;;6288325;22;20466;-96
2020/12/09 18:16:12;;;;;;;186.07;114.17;;;;;;;;;;6286043;22;20424;-96
2020/12/09 18:18:38;;;;;;;174.43;112.67;;;;;;;;;;6284813;22;20412;-96
2020/12/09 18:21:05;;;;;;;192.10;121.47;;;;;;;;;;6290573;22;20409;-96
2020/12/09 18:23:31;;;;;;;206.27;128.03;;;;;;;;;;6296082;22;20449;-96
2020/12/09 18:26:01;;;;;;;191.97;118.30;;;;;;;;;;6297867;22;20409;-96
2020/12/09 18:28:29;;;;;;;168.43;113.97;;;;;;;;;;6302070;22;20396;-96
2020/12/09 18:33:33;;;;;;;177.33;110.57;;;;;;;;;;6236087;22;20454;-96
2020/12/09 18:36:06;;;;;;;168.93;107.07;;;;;;;;;;6235451;22;20398;-96
2020/12/09 18:38:38;;;;;;;173.50;111.13;;;;;;;;;;6229280;23;20413;-96
2020/12/09 18:41:04;;;;;;;178.80;120.00;;;;;;;;;;6224166;23;20394;-96
2020/12/09 18:43:30;;;;;;;159.10;107.63;;;;;;;;;;6224942;23;20470;-96
2020/12/09 18:45:56;;;;;;;173.63;116.70;;;;;;;;;;6229291;23;20430;-96
2020/12/09 18:48:23;;;;;;;274.50;182.00;;;;;;;;;;6225561;23;20410;-96
2020/12/09 18:50:52;;;;;;;283.13;182.27;;;;;;;;;;6235904;23;20422;-96
2020/12/09 18:53:44;;;;;;;283.40;194.33;;;;;;;;;;6263584;22;20455;-96
2020/12/09 18:56:11;;;;;;;217.73;150.90;;;;;;;;;;6335586;22;20404;-96
2020/12/09 19:01:38;;;;;;;89.80;62.10;;;;;;;;;;6286904;22;20445;-96
2020/12/09 19:04:05;;;;;;;102.30;70.10;;;;;;;;;;6268983;23;20449;-96
2020/12/09 19:06:32;;;;;;;124.47;82.30;;;;;;;;;;6258210;22;20412;-95